Time;durP1;ratioP1;P1;durP2;ratioP2;P2;SDS_P1;SDS_P2;PMS_P1;PMS_P2;Temp;Humidity;BMP_temperature;BMP_pressure;BME280_temperature;BME280_humidity;BME280_pressure;Samples;Min_cycle;Max_cycle;Signal;HPM_P1;HPM_P2
2023/03/13 05:30:52;;;;;;;4.55;1.52;;;13.90;84.80;;;;;;5734186;23;20149;-79
2023/03/13 05:33:19;;;;;;;8.05;2.10;;;13.80;84.80;;;;;;4976105;28;20059;-79
2023/03/13 05:35:45;;;;;;;7.13;1.92;;;13.90;84.90;;;;;;4973809;28;20027;-81
2023/03/13 05:38:11;;;;;;;7.65;2.38;;;13.90;84.70;;;;;;4958795;29;20417;-81
2023/03/13 05:40:36;;;;;;;9.32;2.28;;;13.90;84.90;;;;;;4959227;29;20059;-81
2023/03/13 05:43:02;;;;;;;11.45;3.28;;;14.00;84.80;;;;;;4959242;29;20454;-81
2023/03/13 05:45:28;;;;;;;8.77;3.15;;;14.00;84.60;;;;;;4958823;28;20027;-81
2023/03/13 05:47:54;;;;;;;12.45;3.42;;;14.00;84.50;;;;;;4959154;29;20410;-83
2023/03/13 05:50:19;;;;;;;9.80;2.35;;;13.90;84.50;;;;;;4959070;29;20039;-82
2023/03/13 05:52:45;;;;;;;10.88;3.38;;;13.90;84.70;;;;;;4959014;29;20030;-88
2023/03/13 05:55:11;;;;;;;8.05;3.10;;;13.90;84.40;;;;;;4958861;28;20419;-76
2023/03/13 05:57:36;;;;;;;10.60;3.10;;;13.90;84.70;;;;;;4958624;28;20015;-78
2023/03/13 06:00:03;;;;;;;7.53;2.40;;;14.00;84.60;;;;;;4958714;29;20063;-75
2023/03/13 06:02:28;;;;;;;16.08;3.08;;;14.00;84.30;;;;;;4967043;28;20023;-75
2023/03/13 06:04:54;;;;;;;11.60;4.15;;;14.10;84.10;;;;;;4978066;28;20039;-75
2023/03/13 06:07:20;;;;;;;9.00;2.92;;;14.10;83.80;;;;;;4978151;28;20026;-78
2023/03/13 06:09:46;;;;;;;10.73;2.50;;;14.20;83.60;;;;;;4972217;28;20507;-74
2023/03/13 06:12:12;;;;;;;8.95;2.70;;;14.10;83.40;;;;;;4978042;28;20027;-76
2023/03/13 06:14:37;;;;;;;14.57;3.75;;;14.10;83.50;;;;;;4974319;28;20023;-77
2023/03/13 06:17:04;;;;;;;11.48;2.88;;;14.10;83.40;;;;;;4958638;28;20038;-77
2023/03/13 06:19:30;;;;;;;12.35;3.45;;;14.00;83.30;;;;;;4959841;28;20390;-77
2023/03/13 06:21:55;;;;;;;11.52;2.95;;;13.90;83.50;;;;;;4959640;28;20046;-75
2023/03/13 06:24:21;;;;;;;14.07;3.67;;;14.00;83.50;;;;;;4963224;28;20494;-76
2023/03/13 06:26:50;;;;;;;11.18;2.95;;;14.00;83.50;;;;;;4964094;28;20027;-75
2023/03/13 06:29:16;;;;;;;15.68;4.15;;;14.00;83.40;;;;;;4962609;28;20031;-75
2023/03/13 06:31:42;;;;;;;10.10;2.88;;;14.00;83.40;;;;;;4971028;28;20045;-76
2023/03/13 06:34:10;;;;;;;15.98;3.70;;;14.00;83.30;;;;;;4958210;28;20031;-75
2023/03/13 06:36:36;;;;;;;11.63;3.33;;;14.00;83.20;;;;;;4976492;28;20572;-74
2023/03/13 06:39:02;;;;;;;16.65;3.35;;;14.00;83.30;;;;;;4973384;28;20425;-75
2023/03/13 06:41:28;;;;;;;13.38;3.75;;;14.10;83.20;;;;;;4976854;28;20038;-80
2023/03/13 06:43:54;;;;;;;12.85;3.55;;;14.10;83.20;;;;;;4977843;28;20031;-76
2023/03/13 06:46:22;;;;;;;10.93;3.42;;;14.20;83.20;;;;;;4971802;28;20034;-76
2023/03/13 06:48:49;;;;;;;11.55;3.17;;;14.10;82.90;;;;;;4959600;28;20074;-80
2023/03/13 06:51:17;;;;;;;10.30;2.92;;;14.10;82.70;;;;;;4977187;28;20224;-79
2023/03/13 06:53:43;;;;;;;13.55;3.35;;;14.10;82.50;;;;;;4977082;28;20023;-76
2023/03/13 06:56:09;;;;;;;19.30;4.18;;;14.00;82.20;;;;;;4961757;28;20081;-76
2023/03/13 06:58:35;;;;;;;9.77;3.17;;;14.10;82.50;;;;;;4940870;29;20090;-76
2023/03/13 07:01:11;;;;;;;12.45;3.70;;;14.10;82.10;;;;;;4958203;29;20027;-77
2023/03/13 07:03:38;;;;;;;10.40;3.35;;;14.10;82.30;;;;;;4959581;28;20435;-76
2023/03/13 07:06:04;;;;;;;13.02;2.63;;;14.10;82.10;;;;;;4952799;28;20030;-76
2023/03/13 07:08:31;;;;;;;7.60;3.10;;;14.20;82.10;;;;;;4968834;28;20069;-76
2023/03/13 07:11:03;;;;;;;16.48;4.65;;;14.20;82.00;;;;;;4975758;28;20101;-77
2023/03/13 07:13:29;;;;;;;15.77;3.50;;;14.20;82.00;;;;;;4976981;28;20038;-77
2023/03/13 07:15:55;;;;;;;10.00;2.65;;;14.40;81.40;;;;;;4976767;28;20023;-77
2023/03/13 07:18:22;;;;;;;14.65;4.00;;;14.80;79.90;;;;;;4963922;28;20027;-77
2023/03/13 07:20:58;;;;;;;7.45;2.30;;;15.80;77.10;;;;;;4977183;28;20512;-77
2023/03/13 07:23:26;;;;;;;9.93;2.53;;;16.30;74.30;;;;;;4960440;28;20130;-77
2023/03/13 07:26:07;;;;;;;10.07;2.58;;;16.80;72.80;;;;;;4957955;29;20051;-77
2023/03/13 07:28:33;;;;;;;15.27;2.47;;;17.00;71.60;;;;;;4960943;28;20069;-77
2023/03/13 07:31:11;;;;;;;18.60;3.58;;;17.30;70.30;;;;;;4991615;28;20093;-77
2023/03/13 07:33:37;;;;;;;19.77;5.25;;;17.90;68.40;;;;;;4976626;28;20590;-77
2023/03/13 07:36:03;;;;;;;12.23;3.03;;;18.80;65.90;;;;;;4963646;28;20098;-77
2023/03/13 07:38:29;;;;;;;16.90;3.38;;;19.20;63.70;;;;;;4957107;29;20035;-77
2023/03/13 07:40:56;;;;;;;17.10;3.15;;;19.20;63.40;;;;;;4957611;29;20027;-77
2023/03/13 07:43:23;;;;;;;15.38;3.13;;;19.70;62.30;;;;;;4957129;29;20102;-77
2023/03/13 07:45:57;;;;;;;13.00;2.95;;;20.50;60.00;;;;;;4943981;29;20035;-77
2023/03/13 07:48:25;;;;;;;8.95;2.75;;;20.80;58.60;;;;;;4957297;29;20082;-77
2023/03/13 07:50:51;;;;;;;13.30;3.17;;;20.30;58.50;;;;;;4957101;28;20047;-77
2023/03/13 07:53:20;;;;;;;16.20;3.85;;;19.90;60.10;;;;;;4957437;29;20414;-77
2023/03/13 07:56:09;;;;;;;14.90;3.45;;;19.70;60.80;;;;;;4957648;29;20015;-78
2023/03/13 07:58:37;;;;;;;16.98;3.30;;;20.60;58.40;;;;;;4957102;29;20035;-78
2023/03/13 08:01:14;;;;;;;15.50;2.50;;;21.10;56.70;;;;;;4956874;28;20031;-78
2023/03/13 08:03:39;;;;;;;17.70;3.47;;;21.90;55.60;;;;;;4971411;28;20453;-78
2023/03/13 08:06:10;;;;;;;12.48;2.83;;;22.30;53.20;;;;;;4975702;28;20034;-78
2023/03/13 08:08:37;;;;;;;11.65;3.25;;;22.40;53.90;;;;;;4974188;28;20389;-78
2023/03/13 08:11:14;;;;;;;9.57;3.25;;;22.30;53.30;;;;;;4972828;28;20046;-78
2023/03/13 08:13:40;;;;;;;12.98;3.30;;;22.10;53.30;;;;;;4957117;29;20081;-78
2023/03/13 08:16:12;;;;;;;15.45;2.92;;;21.90;53.60;;;;;;4957066;29;20019;-78
2023/03/13 08:18:40;;;;;;;14.85;3.40;;;22.00;53.70;;;;;;4956655;28;20122;-78
2023/03/13 08:21:08;;;;;;;11.00;3.08;;;22.30;52.20;;;;;;4957074;28;20038;-78
2023/03/13 08:23:34;;;;;;;14.32;2.95;;;22.30;52.40;;;;;;4957415;29;20505;-77
2023/03/13 08:26:06;;;;;;;15.50;3.10;;;22.20;51.40;;;;;;4967894;28;20026;-78
2023/03/13 08:28:31;;;;;;;19.35;3.45;;;22.20;52.00;;;;;;4940092;28;20039;-77
2023/03/13 08:30:57;;;;;;;12.70;2.47;;;21.30;52.70;;;;;;4967174;28;20046;-77
2023/03/13 08:33:23;;;;;;;13.38;3.08;;;19.80;57.00;;;;;;4976408;28;20027;-77
2023/03/13 08:35:48;;;;;;;11.88;3.40;;;20.60;56.20;;;;;;4958368;28;20504;-78
2023/03/13 08:38:14;;;;;;;9.25;2.75;;;21.20;55.70;;;;;;4957205;28;20456;-77
2023/03/13 08:40:40;;;;;;;10.95;2.47;;;21.80;53.90;;;;;;4956696;28;20075;-77
2023/03/13 08:43:05;;;;;;;20.17;3.20;;;21.40;53.90;;;;;;4957305;28;20115;-78
2023/03/13 08:45:31;;;;;;;15.35;3.35;;;21.80;53.70;;;;;;4968730;28;20019;-77
2023/03/13 08:47:57;;;;;;;19.10;3.22;;;21.80;53.60;;;;;;4976191;28;20023;-77
2023/03/13 08:50:22;;;;;;;14.07;2.67;;;22.00;52.90;;;;;;4989856;28;20157;-77
2023/03/13 08:52:48;;;;;;;17.92;3.78;;;21.30;53.20;;;;;;4957196;29;20102;-77
2023/03/13 08:55:15;;;;;;;11.50;2.58;;;21.00;54.40;;;;;;4956799;28;20038;-77
2023/03/13 08:57:40;;;;;;;13.02;7.55;;;21.70;52.90;;;;;;4959443;28;20951;-77
2023/03/13 09:00:06;;;;;;;15.25;8.25;;;22.10;51.40;;;;;;4960163;29;20027;-77
2023/03/13 09:02:32;;;;;;;14.63;3.25;;;22.30;50.20;;;;;;4965372;28;20433;-77
2023/03/13 09:04:58;;;;;;;11.18;5.93;;;22.80;49.10;;;;;;4979615;28;20121;-77
2023/03/13 09:07:23;;;;;;;16.67;3.00;;;23.30;47.30;;;;;;4965214;28;20446;-77
2023/03/13 09:09:49;;;;;;;10.00;4.28;;;23.30;47.00;;;;;;4994034;28;20042;-77
2023/03/13 09:12:14;;;;;;;14.77;2.85;;;23.10;46.80;;;;;;4963244;28;20386;-77
2023/03/13 09:14:40;;;;;;;14.13;3.13;;;22.80;47.70;;;;;;4959951;29;20038;-77
2023/03/13 09:17:06;;;;;;;11.85;2.65;;;22.80;47.90;;;;;;4959578;28;20030;-77
2023/03/13 09:19:32;;;;;;;12.75;3.10;;;22.60;47.70;;;;;;4959968;29;20043;-77
2023/03/13 09:21:57;;;;;;;17.90;3.58;;;22.60;48.30;;;;;;4959873;28;20032;-77
2023/03/13 09:24:23;;;;;;;13.05;3.05;;;22.80;47.90;;;;;;4963138;28;20031;-77
2023/03/13 09:26:49;;;;;;;12.90;3.55;;;22.90;46.50;;;;;;4978028;28;20022;-77
2023/03/13 09:29:15;;;;;;;12.40;2.92;;;23.30;46.70;;;;;;4998214;28;20037;-77
2023/03/13 09:31:41;;;;;;;11.88;2.88;;;23.40;45.00;;;;;;4962940;28;20055;-77
2023/03/13 09:34:06;;;;;;;10.60;2.92;;;23.40;44.60;;;;;;4977448;28;20114;-85
2023/03/13 09:36:32;;;;;;;15.73;3.22;;;22.40;46.00;;;;;;4960789;28;20035;-85
2023/03/13 09:38:59;;;;;;;13.68;3.38;;;22.90;46.30;;;;;;4961266;28;20038;-85
2023/03/13 09:41:57;;;;;;;13.27;2.50;;;23.70;46.00;;;;;;4957978;29;20096;-85
2023/03/13 09:44:29;;;;;;;11.20;3.20;;;23.50;43.90;;;;;;4968181;28;20027;-86
2023/03/13 09:47:05;;;;;;;14.48;3.83;;;23.80;44.60;;;;;;4978725;28;20030;-86
2023/03/13 09:49:44;;;;;;;15.63;3.65;;;24.60;43.40;;;;;;4964096;28;20046;-86
2023/03/13 09:52:28;;;;;;;9.63;3.07;;;24.50;43.30;;;;;;4942559;29;20552;-86
2023/03/13 09:55:20;;;;;;;8.35;3.00;;;24.80;42.10;;;;;;4959040;29;20358;-85
2023/03/13 09:58:15;;;;;;;7.07;2.50;;;24.80;42.00;;;;;;4942398;29;20031;-86
2023/03/13 10:00:47;;;;;;;13.90;3.05;;;24.70;41.70;;;;;;4957612;29;20034;-86
2023/03/13 10:03:38;;;;;;;11.13;2.38;;;24.40;41.80;;;;;;4969737;28;20438;-85
2023/03/13 10:06:12;;;;;;;15.40;3.90;;;23.40;43.80;;;;;;4960495;28;20030;-85
2023/03/13 10:08:38;;;;;;;12.95;3.15;;;22.50;45.90;;;;;;4959371;28;20479;-86
2023/03/13 10:11:07;;;;;;;12.13;3.00;;;22.60;46.00;;;;;;4952890;28;20045;-85
2023/03/13 10:13:38;;;;;;;10.25;2.95;;;22.50;46.10;;;;;;4960447;28;20468;-84
2023/03/13 10:16:09;;;;;;;11.43;3.17;;;22.70;45.90;;;;;;4978416;28;20026;-86
2023/03/13 10:18:35;;;;;;;10.55;2.45;;;22.70;45.30;;;;;;4961930;28;20082;-86
2023/03/13 10:21:14;;;;;;;11.93;2.80;;;22.70;45.50;;;;;;4960360;28;20027;-85
2023/03/13 10:23:49;;;;;;;16.70;2.28;;;22.30;46.20;;;;;;4956847;29;20027;-85
2023/03/13 10:26:28;;;;;;;11.15;3.40;;;21.60;47.30;;;;;;4963824;28;20149;-84
2023/03/13 10:28:55;;;;;;;13.93;3.70;;;20.90;49.40;;;;;;4976163;28;20035;-84
2023/03/13 10:31:31;;;;;;;12.52;2.72;;;20.70;51.30;;;;;;4977501;28;20166;-84
2023/03/13 10:34:12;;;;;;;18.08;3.60;;;20.50;52.00;;;;;;4958289;28;20026;-84
2023/03/13 10:36:48;;;;;;;18.38;3.80;;;20.00;52.60;;;;;;4978021;28;20508;-84
2023/03/13 10:39:20;;;;;;;15.00;2.88;;;19.80;53.00;;;;;;4970446;28;20569;-84
2023/03/13 10:41:47;;;;;;;18.88;2.97;;;19.30;53.70;;;;;;4958559;29;20082;-85
2023/03/13 10:44:22;;;;;;;13.85;2.20;;;18.90;53.50;;;;;;4941637;29;20180;-84
2023/03/13 10:46:49;;;;;;;13.23;2.50;;;18.40;52.60;;;;;;4942700;28;20035;-83
2023/03/13 10:49:17;;;;;;;14.68;3.20;;;18.60;54.40;;;;;;4976158;28;20434;-84
2023/03/13 10:51:51;;;;;;;14.77;3.05;;;18.40;54.00;;;;;;4976255;28;20105;-84
2023/03/13 10:54:24;;;;;;;13.25;3.30;;;18.70;54.60;;;;;;4980530;28;20023;-84
2023/03/13 10:56:52;;;;;;;16.23;2.63;;;18.90;54.80;;;;;;4972018;28;20598;-84
2023/03/13 10:59:21;;;;;;;13.75;2.38;;;19.20;55.10;;;;;;4975752;28;20441;-84
2023/03/13 11:01:48;;;;;;;13.80;2.70;;;19.40;54.70;;;;;;4980576;28;20617;-84
2023/03/13 11:04:30;;;;;;;10.30;2.58;;;19.30;55.40;;;;;;4972736;28;20505;-84
2023/03/13 11:07:27;;;;;;;16.35;2.88;;;19.20;56.10;;;;;;4975746;28;20039;-84
2023/03/13 11:10:23;;;;;;;8.23;2.20;;;19.10;55.60;;;;;;4956775;28;20109;-84
2023/03/13 11:12:51;;;;;;;11.77;2.47;;;18.90;55.00;;;;;;4942881;28;20053;-83
2023/03/13 11:15:55;;;;;;;7.32;2.15;;;19.10;56.50;;;;;;4978025;28;20027;-84
2023/03/13 11:18:39;;;;;;;17.67;2.97;;;18.90;54.10;;;;;;4964651;28;20031;-84
2023/03/13 11:21:05;;;;;;;13.13;3.35;;;18.80;53.90;;;;;;4975200;28;20781;-84
2023/03/13 11:23:41;;;;;;;15.48;2.33;;;18.80;54.10;;;;;;4975701;28;20029;-84
2023/03/13 11:26:33;;;;;;;15.40;2.40;;;18.70;53.20;;;;;;4987849;28;20058;-84
2023/03/13 11:29:17;;;;;;;14.40;2.42;;;18.70;53.50;;;;;;4974306;28;20150;-83
2023/03/13 11:31:53;;;;;;;10.55;2.70;;;18.60;52.40;;;;;;4983592;28;20053;-84
2023/03/13 11:34:37;;;;;;;11.50;2.38;;;18.60;52.40;;;;;;4961657;28;20054;-83
2023/03/13 11:37:14;;;;;;;15.18;2.47;;;18.40;52.70;;;;;;4977076;28;20188;-83
2023/03/13 11:40:08;;;;;;;11.55;2.08;;;18.50;52.80;;;;;;4986196;28;20113;-83
2023/03/13 11:43:11;;;;;;;11.73;2.63;;;18.60;52.80;;;;;;4989692;28;20038;-77
2023/03/13 11:45:39;;;;;;;9.43;1.95;;;18.70;53.10;;;;;;4987188;28;20038;-80
2023/03/13 11:48:30;;;;;;;11.65;1.88;;;18.60;51.80;;;;;;4977071;28;20038;-81
2023/03/13 11:51:05;;;;;;;;;;;18.60;52.60;;;;;;4995753;28;20150;-80
2023/03/13 11:53:52;;;;;;;8.98;1.92;;;18.60;53.30;;;;;;4990537;28;19941;-81
2023/03/13 11:56:30;;;;;;;8.68;2.08;;;18.60;53.10;;;;;;4995255;28;20048;-81
2023/03/13 11:58:59;;;;;;;17.92;2.78;;;18.70;51.70;;;;;;4987117;28;20033;-80
2023/03/13 12:01:29;;;;;;;9.75;1.92;;;18.50;51.40;;;;;;4984020;28;20041;-80
2023/03/13 12:04:19;;;;;;;11.45;1.90;;;18.40;51.80;;;;;;4991911;28;20437;-80
2023/03/13 12:07:13;;;;;;;13.55;2.55;;;18.50;51.40;;;;;;4991672;28;20050;-80
2023/03/13 12:09:44;;;;;;;14.45;2.10;;;18.40;51.50;;;;;;4989630;28;20090;-80
2023/03/13 12:12:18;;;;;;;11.80;2.70;;;18.40;51.70;;;;;;4991084;28;20444;-80
2023/03/13 12:15:19;;;;;;;10.50;2.38;;;18.30;51.10;;;;;;4988182;28;20197;-80
2023/03/13 12:17:59;;;;;;;9.35;1.92;;;18.50;52.80;;;;;;4933779;28;20049;-80
2023/03/13 12:20:32;;;;;;;;;;;18.70;53.80;;;;;;4977587;28;20029;-81
2023/03/13 12:23:19;;;;;;;17.02;2.55;;;18.80;53.20;;;;;;4988199;28;19970;-83
2023/03/13 12:25:55;;;;;;;10.23;2.10;;;18.80;51.90;;;;;;4976865;28;20027;-79
2023/03/13 12:28:36;;;;;;;10.43;1.83;;;18.80;51.70;;;;;;4994590;28;20084;-84
2023/03/13 12:31:19;;;;;;;15.32;3.05;;;18.50;52.60;;;;;;4979554;28;20086;-80
2023/03/13 12:33:56;;;;;;;15.25;2.75;;;18.60;51.90;;;;;;4985543;28;20026;-80
2023/03/13 12:36:29;;;;;;;12.70;2.45;;;18.80;52.90;;;;;;4992639;28;20448;-80
2023/03/13 12:39:17;;;;;;;12.40;2.97;;;18.90;53.10;;;;;;4999163;28;20022;-80
2023/03/13 12:42:24;;;;;;;8.85;2.13;;;18.90;52.30;;;;;;4991481;28;20030;-80
2023/03/13 12:44:50;;;;;;;11.80;1.90;;;19.00;52.30;;;;;;4987854;28;20124;-80
2023/03/13 12:47:34;;;;;;;8.13;2.13;;;18.80;51.10;;;;;;4997333;28;20496;-80
2023/03/13 12:50:06;;;;;;;11.73;2.00;;;18.70;50.80;;;;;;4990394;28;20031;-80
2023/03/13 12:53:01;;;;;;;12.75;2.10;;;18.80;52.90;;;;;;4997382;28;20456;-80
2023/03/13 12:55:30;;;;;;;13.50;2.30;;;18.80;52.90;;;;;;4932528;28;20053;-79
2023/03/13 12:58:34;;;;;;;9.45;2.33;;;18.60;53.00;;;;;;4997930;28;20061;-79
2023/03/13 13:01:04;;;;;;;10.13;2.30;;;18.60;53.60;;;;;;4973924;28;20046;-79
2023/03/13 13:03:30;;;;;;;8.00;2.38;;;18.60;53.00;;;;;;4996851;28;20085;-80
2023/03/13 13:06:05;;;;;;;11.02;2.53;;;18.60;53.50;;;;;;4991533;28;20042;-79
2023/03/13 13:08:40;;;;;;;13.90;2.25;;;18.50;51.00;;;;;;4997304;28;20026;-80
2023/03/13 13:11:33;;;;;;;12.98;2.35;;;18.50;51.60;;;;;;4992661;28;20022;-80
2023/03/13 13:14:15;;;;;;;12.40;2.22;;;18.80;52.80;;;;;;4990974;28;20031;-80
2023/03/13 13:16:47;;;;;;;10.43;2.55;;;18.70;52.60;;;;;;4997051;28;20022;-80
2023/03/13 13:19:39;;;;;;;10.73;2.28;;;18.60;50.90;;;;;;4996696;28;20101;-80
2023/03/13 13:22:35;;;;;;;14.80;2.92;;;18.50;52.50;;;;;;4973858;28;20158;-80
2023/03/13 13:25:10;;;;;;;8.13;1.45;;;18.40;53.90;;;;;;4980004;28;20090;-79
2023/03/13 13:27:35;;;;;;;13.32;2.90;;;18.30;52.10;;;;;;4975145;28;20046;-79
2023/03/13 13:30:24;;;;;;;11.60;2.65;;;18.00;53.90;;;;;;4991764;28;20062;-79
2023/03/13 13:32:52;;;;;;;17.60;4.40;;;18.30;55.10;;;;;;4979286;28;20054;-79
2023/03/13 13:35:46;;;;;;;10.73;3.40;;;18.40;54.60;;;;;;4977913;28;21089;-79
2023/03/13 13:38:17;;;;;;;10.45;3.63;;;18.40;54.00;;;;;;4993977;28;20039;-79
2023/03/13 13:41:25;;;;;;;12.98;3.35;;;18.70;53.50;;;;;;4979617;28;20018;-79
2023/03/13 13:44:19;;;;;;;20.65;3.03;;;18.50;52.20;;;;;;4979704;28;20106;-80
2023/03/13 13:46:45;;;;;;;13.45;3.53;;;18.50;53.90;;;;;;4989277;28;20031;-80
2023/03/13 13:49:18;;;;;;;11.90;3.17;;;18.60;54.60;;;;;;4996716;28;20049;-80
2023/03/13 13:52:02;;;;;;;13.10;2.55;;;18.50;53.20;;;;;;4988982;28;20516;-80
2023/03/13 13:54:52;;;;;;;10.45;1.92;;;18.50;53.20;;;;;;4996475;28;20536;-80
2023/03/13 13:57:21;;;;;;;13.35;2.78;;;18.30;52.80;;;;;;4996426;28;20077;-79
2023/03/13 13:59:51;;;;;;;20.63;3.70;;;18.20;53.10;;;;;;4978023;28;20042;-80
2023/03/13 14:02:23;;;;;;;17.02;2.80;;;18.20;53.10;;;;;;4968739;28;20718;-80
2023/03/13 14:05:07;;;;;;;12.88;3.17;;;18.20;53.30;;;;;;4989532;28;20035;-79
2023/03/13 14:07:43;;;;;;;12.45;2.45;;;18.30;53.60;;;;;;4972660;28;20034;-79
2023/03/13 14:10:29;;;;;;;10.43;2.35;;;18.20;53.90;;;;;;4990605;28;20026;-80
2023/03/13 14:12:57;;;;;;;16.75;2.20;;;18.10;54.40;;;;;;4996276;28;20022;-79
2023/03/13 14:15:27;;;;;;;13.95;3.28;;;17.90;55.30;;;;;;4995536;28;20022;-80
2023/03/13 14:18:31;;;;;;;18.05;3.75;;;17.90;55.10;;;;;;4994514;28;20053;-79
2023/03/13 14:21:00;;;;;;;14.65;2.58;;;18.00;55.70;;;;;;4876983;29;20044;-80
2023/03/13 14:23:43;;;;;;;14.05;2.28;;;18.10;56.00;;;;;;4891358;29;20037;-80
2023/03/13 14:26:27;;;;;;;16.20;2.75;;;18.00;54.30;;;;;;4957832;28;20033;-80
2023/03/13 14:28:56;;;;;;;12.63;2.35;;;18.00;54.80;;;;;;4987527;28;20037;-80
2023/03/13 14:31:36;;;;;;;12.47;2.97;;;18.00;55.70;;;;;;4989718;28;20125;-80
2023/03/13 14:34:03;;;;;;;;;;;18.00;55.70;;;;;;4994136;28;20109;-80
2023/03/13 14:36:29;;;;;;;19.02;2.50;;;18.00;55.80;;;;;;4971140;28;19913;-80
2023/03/13 14:38:57;;;;;;;7.55;2.10;;;17.90;56.10;;;;;;4990351;28;20031;-79
2023/03/13 14:41:37;;;;;;;16.98;3.40;;;17.90;56.10;;;;;;4996384;28;20027;-80
2023/03/13 14:44:05;;;;;;;14.18;2.70;;;17.80;56.80;;;;;;4988955;28;20449;-80
2023/03/13 14:46:38;;;;;;;16.35;3.25;;;17.80;57.40;;;;;;4995461;28;20022;-80
2023/03/13 14:49:16;;;;;;;12.38;3.28;;;17.80;57.10;;;;;;4967620;28;20038;-80
2023/03/13 14:51:42;;;;;;;20.77;3.40;;;17.80;57.70;;;;;;4977802;28;20129;-80
2023/03/13 14:54:29;;;;;;;23.10;3.67;;;17.80;58.20;;;;;;4995005;28;20062;-80
2023/03/13 14:57:22;;;;;;;11.88;2.53;;;17.60;58.20;;;;;;4992957;28;20026;-80
2023/03/13 14:59:49;;;;;;;11.68;2.45;;;17.70;58.90;;;;;;4985690;28;20516;-80
2023/03/13 15:02:23;;;;;;;11.40;2.70;;;17.60;57.90;;;;;;4990281;28;20031;-80
2023/03/13 15:05:06;;;;;;;13.85;2.60;;;17.70;58.60;;;;;;4985393;28;20030;-80
2023/03/13 15:07:52;;;;;;;16.65;3.63;;;17.50;58.70;;;;;;4995075;28;20018;-80
2023/03/13 15:10:39;;;;;;;17.10;2.63;;;17.40;59.50;;;;;;4978489;28;20030;-80
2023/03/13 15:13:23;;;;;;;13.40;3.13;;;17.40;60.10;;;;;;4995170;28;20023;-80
2023/03/13 15:15:49;;;;;;;12.93;2.97;;;17.30;60.30;;;;;;4994960;28;20030;-80
2023/03/13 15:18:19;;;;;;;14.15;3.33;;;17.10;60.40;;;;;;4994621;28;20382;-79
2023/03/13 15:20:54;;;;;;;17.30;4.13;;;17.10;61.10;;;;;;4987669;28;20034;-80
2023/03/13 15:23:20;;;;;;;24.20;3.42;;;17.00;61.50;;;;;;4991483;28;20445;-79
2023/03/13 15:25:47;;;;;;;15.05;2.85;;;17.10;61.50;;;;;;4992123;28;20037;-79
2023/03/13 15:28:15;;;;;;;14.07;2.47;;;17.00;61.60;;;;;;4994530;28;20034;-80
2023/03/13 15:30:42;;;;;;;19.45;3.22;;;17.00;61.50;;;;;;4987043;28;20055;-79
2023/03/13 15:33:14;;;;;;;12.30;3.05;;;16.90;60.90;;;;;;4973347;28;20034;-81
2023/03/13 15:35:40;;;;;;;21.08;3.38;;;16.80;61.40;;;;;;4994394;28;20039;-81
2023/03/13 15:38:13;;;;;;;22.77;3.55;;;16.80;61.90;;;;;;4977034;28;20110;-81
2023/03/13 15:40:39;;;;;;;14.13;2.70;;;16.80;62.00;;;;;;4973056;28;20034;-81
2023/03/13 15:43:05;;;;;;;15.57;3.22;;;16.80;61.80;;;;;;4994606;28;20034;-82
2023/03/13 15:45:31;;;;;;;16.13;3.25;;;16.80;62.60;;;;;;4967885;28;20078;-82
2023/03/13 15:47:58;;;;;;;10.82;2.65;;;16.50;63.90;;;;;;4994955;28;20030;-82
2023/03/13 15:50:29;;;;;;;10.82;2.58;;;16.40;64.70;;;;;;4975877;28;20044;-81
2023/03/13 15:52:57;;;;;;;7.65;1.85;;;16.30;65.70;;;;;;4994214;28;20413;-82
2023/03/13 15:55:25;;;;;;;12.55;2.92;;;16.10;66.30;;;;;;4977211;28;20735;-83
2023/03/13 15:57:50;;;;;;;10.23;3.40;;;16.20;66.50;;;;;;4987001;28;20532;-82
2023/03/13 16:00:22;;;;;;;11.00;2.42;;;16.20;66.40;;;;;;4990831;28;20039;-81
2023/03/13 16:02:48;;;;;;;17.38;3.47;;;16.20;67.40;;;;;;4989736;28;20022;-81
2023/03/13 16:05:15;;;;;;;19.30;3.08;;;16.30;68.10;;;;;;4995669;28;20058;-81
2023/03/13 16:07:41;;;;;;;7.00;2.10;;;16.30;69.30;;;;;;4998092;28;20026;-82
2023/03/13 16:10:16;;;;;;;8.70;2.38;;;16.30;69.60;;;;;;4974683;28;20161;-81
2023/03/13 16:12:42;;;;;;;13.38;2.40;;;16.30;69.10;;;;;;4997297;28;20022;-81
2023/03/13 16:15:08;;;;;;;12.93;2.22;;;16.20;69.30;;;;;;4996412;28;20033;-81
2023/03/13 16:17:34;;;;;;;12.50;2.38;;;16.20;69.40;;;;;;4975486;28;20026;-81
2023/03/13 16:19:59;;;;;;;13.35;3.60;;;16.20;69.50;;;;;;4998462;28;20034;-81
2023/03/13 16:22:25;;;;;;;13.85;3.05;;;16.20;69.20;;;;;;4980757;28;20034;-82
2023/03/13 16:24:50;;;;;;;12.13;3.03;;;16.10;68.50;;;;;;4993213;28;20117;-81
2023/03/13 16:27:18;;;;;;;16.42;3.05;;;16.10;68.30;;;;;;4998146;28;20033;-82
2023/03/13 16:29:45;;;;;;;16.10;3.67;;;16.20;68.00;;;;;;4991526;28;20497;-81
2023/03/13 16:32:15;;;;;;;16.73;2.60;;;16.00;66.90;;;;;;4996959;28;20034;-82
2023/03/13 16:34:41;;;;;;;17.67;2.47;;;16.00;67.10;;;;;;4997714;28;20409;-81
2023/03/13 16:37:18;;;;;;;15.00;2.60;;;15.90;65.60;;;;;;4989600;28;20045;-81
2023/03/13 16:39:45;;;;;;;16.23;2.78;;;16.00;64.70;;;;;;4998302;28;20038;-81
2023/03/13 16:42:11;;;;;;;14.15;2.58;;;15.80;64.50;;;;;;4980585;28;20026;-81
2023/03/13 16:44:38;;;;;;;6.30;2.28;;;15.80;64.80;;;;;;4973801;28;20501;-81
2023/03/13 16:47:27;;;;;;;11.02;2.50;;;15.80;63.80;;;;;;4976920;28;20460;-81
2023/03/13 16:49:53;;;;;;;11.98;2.30;;;15.80;63.60;;;;;;4998182;28;20026;-79
2023/03/13 16:52:18;;;;;;;20.40;3.40;;;15.50;63.80;;;;;;4981432;28;20503;-82
2023/03/13 16:54:45;;;;;;;10.93;2.40;;;15.60;64.20;;;;;;4977029;28;20110;-82
2023/03/13 16:57:23;;;;;;;16.00;2.92;;;15.70;64.40;;;;;;4960305;29;20047;-81
2023/03/13 16:59:50;;;;;;;13.65;3.40;;;15.70;65.10;;;;;;4960599;29;20110;-82
2023/03/13 17:02:18;;;;;;;10.45;2.63;;;15.50;65.60;;;;;;4955201;28;20050;-81
2023/03/13 17:04:45;;;;;;;9.98;2.38;;;15.50;65.80;;;;;;4977357;28;20041;-81
2023/03/13 17:07:25;;;;;;;15.27;2.67;;;15.30;65.90;;;;;;4962357;28;20026;-80
2023/03/13 17:09:51;;;;;;;12.52;2.28;;;15.10;68.30;;;;;;4959319;28;20027;-80
2023/03/13 17:12:18;;;;;;;12.00;1.63;;;15.20;69.00;;;;;;4968849;28;20042;-81
2023/03/13 17:14:44;;;;;;;19.80;1.85;;;15.00;69.00;;;;;;4967013;28;20039;-77
2023/03/13 17:17:13;;;;;;;12.25;2.35;;;14.90;69.40;;;;;;4941377;29;20368;-81
2023/03/13 17:19:39;;;;;;;13.50;3.03;;;15.00;69.80;;;;;;4959779;29;20031;-79
2023/03/13 17:22:04;;;;;;;8.15;1.25;;;15.00;70.50;;;;;;4973688;28;20045;-78
2023/03/13 17:24:31;;;;;;;10.75;2.10;;;14.90;71.10;;;;;;4972517;28;20148;-78
2023/03/13 17:26:56;;;;;;;7.72;2.65;;;14.70;71.40;;;;;;4977982;28;20034;-77
2023/03/13 17:29:22;;;;;;;9.32;1.98;;;14.70;71.40;;;;;;4978242;28;20061;-79
2023/03/13 17:31:48;;;;;;;16.75;2.45;;;14.70;70.90;;;;;;4978347;28;20046;-81
2023/03/13 17:34:15;;;;;;;5.50;2.22;;;14.70;70.70;;;;;;4961523;28;20414;-78
2023/03/13 17:36:41;;;;;;;6.38;1.60;;;14.50;70.40;;;;;;4971228;28;20023;-78
2023/03/13 17:39:11;;;;;;;5.03;1.35;;;14.40;70.30;;;;;;4974532;28;20030;-78
2023/03/13 17:41:37;;;;;;;5.28;1.13;;;14.20;70.50;;;;;;4977243;28;20718;-79
2023/03/13 17:44:03;;;;;;;6.68;1.77;;;14.20;70.70;;;;;;4965608;28;20126;-79
2023/03/13 17:46:45;;;;;;;7.97;1.75;;;14.20;70.40;;;;;;4966502;28;20078;-78
2023/03/13 17:49:13;;;;;;;11.73;2.05;;;14.20;70.60;;;;;;4969913;28;20034;-78
2023/03/13 17:51:40;;;;;;;11.80;1.73;;;14.20;70.40;;;;;;4960050;28;20054;-78
2023/03/13 17:54:07;;;;;;;7.55;2.28;;;14.10;70.70;;;;;;4952137;28;20078;-78
2023/03/13 17:56:37;;;;;;;9.40;1.70;;;14.10;70.80;;;;;;4953782;28;20034;-78
2023/03/13 17:59:05;;;;;;;6.28;1.85;;;14.10;70.90;;;;;;4976863;28;20078;-79
2023/03/13 18:01:41;;;;;;;9.52;2.78;;;14.10;70.90;;;;;;4966245;28;20079;-78
2023/03/13 18:04:07;;;;;;;12.68;2.97;;;14.00;71.20;;;;;;4968359;28;20039;-79
2023/03/13 18:06:42;;;;;;;12.18;2.50;;;14.00;71.60;;;;;;4955264;28;20568;-78
2023/03/13 18:09:16;;;;;;;12.13;2.15;;;14.00;71.40;;;;;;4967555;28;20035;-79
2023/03/13 18:11:42;;;;;;;12.77;2.53;;;14.10;71.40;;;;;;4966001;28;20027;-79
2023/03/13 18:14:08;;;;;;;10.27;2.47;;;14.20;71.30;;;;;;4970818;28;20101;-78
2023/03/13 18:16:41;;;;;;;8.73;2.60;;;14.10;71.30;;;;;;4967790;28;20379;-80
2023/03/13 18:19:17;;;;;;;15.10;2.60;;;14.00;71.80;;;;;;4952226;28;20066;-81
2023/03/13 18:21:44;;;;;;;14.77;3.35;;;14.00;72.10;;;;;;4965966;28;20031;-79
2023/03/13 18:24:14;;;;;;;9.60;2.92;;;14.00;72.20;;;;;;4966878;28;20046;-79
2023/03/13 18:26:41;;;;;;;15.90;3.08;;;14.00;72.20;;;;;;4955643;28;20089;-79
2023/03/13 18:29:33;;;;;;;20.58;3.40;;;13.90;72.30;;;;;;4968938;28;20062;-81
2023/03/13 18:32:41;;;;;;;9.90;2.28;;;13.90;72.30;;;;;;4949845;28;20506;-82
2023/03/13 18:35:07;;;;;;;10.15;2.72;;;13.90;72.40;;;;;;4946100;28;20038;-79
2023/03/13 18:37:33;;;;;;;18.25;2.92;;;13.80;72.70;;;;;;4967344;28;20038;-75